Terminal Aerodrome Forecast
Issued by NWS

Home | Current Version | Previous Version | Text Only | Print | Product List | Glossary On
Versions: 1 2 3 4 5 6 7 8 9 10 11 12 13 14 15 16 17
000
FTUS46 KSGX 070935 AAA
TAFSNA
TAF AMD
KSNA 070935Z 0710/0806 VRB04KT 6SM BR BKN007 OVC013
     FM071600 VRB04KT P6SM OVC013
     FM072000 21009KT P6SM SCT020
     FM080200 VRB04KT P6SM OVC018=

USA.gov is the U.S. government's official web portal to all federal, state and local government web resources and services.